createdAt,value
2017-09-05T15:17:25.483Z,725
2017-09-05T15:18:27.222Z,680
2017-09-05T15:19:28.991Z,697
2017-09-05T15:20:32.120Z,714
2017-09-05T15:21:37.013Z,714
2017-09-05T15:22:56.638Z,714
2017-09-05T15:24:03.472Z,714
2017-09-05T15:25:06.584Z,714
2017-09-05T15:26:11.422Z,714
2017-09-05T15:27:15.259Z,731
2017-09-05T15:28:19.687Z,736
2017-09-05T15:29:26.826Z,742
2017-09-05T15:30:31.617Z,742
2017-09-05T15:31:35.118Z,753
2017-09-05T15:32:39.236Z,765
2017-09-05T15:33:43.851Z,793
2017-09-05T15:34:47.065Z,916
2017-09-05T15:35:54.473Z,1428
2017-09-05T15:37:31.878Z,1845
2017-09-05T15:38:35.731Z,1985
2017-09-05T15:39:38.072Z,2019
2017-09-05T15:40:41.878Z,1749
2017-09-05T15:41:45.027Z,1901
2017-09-05T15:42:48.848Z,1963
2017-09-05T15:43:52.719Z,2030
2017-09-05T15:44:56.763Z,2131
2017-09-05T15:46:01.680Z,2233
2017-09-05T15:47:06.203Z,2407
2017-09-05T15:48:10.158Z,2581
2017-09-05T15:49:14.293Z,2520
2017-09-05T15:50:18.374Z,2328
2017-09-05T15:51:21.970Z,1974
2017-09-05T15:52:23.780Z,1693
2017-09-05T15:53:25.729Z,1490
2017-09-05T15:54:27.480Z,1350
2017-09-05T15:55:29.602Z,1248
2017-09-05T15:58:10.286Z,1147
2017-09-05T15:59:17.199Z,1096
2017-09-05T16:00:27.687Z,1046
2017-09-05T16:01:30.340Z,978
2017-09-05T16:02:31.978Z,967
2017-09-05T16:03:36.716Z,928
2017-09-05T16:05:05.094Z,911
2017-09-05T16:10:08.634Z,928
2017-09-05T16:11:11.348Z,967
2017-09-05T16:12:13.811Z,967
2017-09-05T16:13:16.497Z,950
2017-09-05T16:14:20.949Z,922
2017-09-05T16:15:22.713Z,888
2017-09-05T16:16:25.179Z,956
2017-09-05T16:17:27.203Z,832
2017-09-05T16:18:28.968Z,1012
2017-09-05T16:19:31.654Z,984
2017-09-05T16:20:33.499Z,961
2017-09-05T16:21:35.353Z,961
2017-09-05T16:22:37.168Z,967
2017-09-05T16:23:38.994Z,939
2017-09-05T16:24:40.791Z,928
2017-09-05T16:25:42.571Z,933
2017-09-05T16:26:44.297Z,967
2017-09-05T16:27:46.009Z,888
2017-09-05T16:28:47.770Z,793
2017-09-05T16:29:49.770Z,928
2017-09-05T16:30:51.476Z,866
2017-09-05T16:31:53.794Z,871
2017-09-05T16:32:55.530Z,714
2017-09-05T16:33:57.258Z,928
2017-09-05T16:34:58.975Z,922
2017-09-05T16:36:00.703Z,911
2017-09-05T16:37:02.971Z,933
2017-09-05T16:38:04.690Z,894
2017-09-05T16:39:06.427Z,900
2017-09-05T16:40:08.156Z,883
2017-09-05T16:41:09.899Z,866
2017-09-05T16:42:11.840Z,866
2017-09-05T16:43:13.553Z,888
2017-09-05T16:44:15.291Z,894
2017-09-05T16:45:16.996Z,849
2017-09-05T16:46:18.724Z,871
2017-09-05T16:47:20.492Z,832
2017-09-05T16:48:22.264Z,815
2017-09-05T16:49:24.007Z,793
2017-09-05T16:50:25.725Z,810
2017-09-05T16:51:27.506Z,748
2017-09-05T16:52:29.233Z,826
2017-09-05T16:53:30.971Z,838
2017-09-05T16:54:32.757Z,849
2017-09-05T16:55:34.483Z,860
2017-09-05T16:56:36.211Z,815
2017-09-05T16:57:37.955Z,860
2017-09-05T16:58:39.718Z,866
2017-09-05T16:59:41.469Z,956
2017-09-05T17:00:43.284Z,1006
2017-09-05T17:01:45.031Z,1068
2017-09-05T17:02:47.302Z,1119
2017-09-05T17:03:49.147Z,1164
2017-09-05T17:04:50.932Z,1209
2017-09-05T17:05:52.718Z,1231
2017-09-05T17:06:54.453Z,1271
2017-09-05T17:07:56.175Z,1316
2017-09-05T17:08:57.994Z,1327
2017-09-05T17:09:59.727Z,1321
2017-09-05T17:11:01.510Z,1411
2017-09-05T17:12:03.371Z,1535
2017-09-05T17:13:05.082Z,1631
2017-09-05T17:14:06.917Z,1721
2017-09-05T17:15:08.678Z,1850
2017-09-05T17:16:10.424Z,1957
2017-09-05T17:17:12.182Z,1963
2017-09-05T17:18:13.940Z,2008
2017-09-05T17:19:15.673Z,1861
2017-09-05T17:20:17.535Z,1749
2017-09-05T17:21:19.254Z,1783
2017-09-05T17:22:20.967Z,1749
2017-09-05T17:23:22.699Z,1620
2017-09-05T17:24:24.437Z,1563
2017-09-05T17:25:26.152Z,1524
2017-09-05T17:26:27.884Z,1479
2017-09-05T17:27:29.670Z,1434
2017-09-05T17:28:31.474Z,1423
2017-09-05T17:29:33.199Z,1383
2017-09-05T17:30:35.008Z,1344
2017-09-05T17:31:36.763Z,1293
2017-09-05T17:32:38.531Z,1293
2017-09-05T17:33:40.288Z,1271
2017-09-05T17:34:42.039Z,1243
2017-09-05T17:35:43.782Z,1237
2017-09-05T17:36:45.539Z,1220
2017-09-05T17:37:47.277Z,1186
2017-09-05T17:38:49.018Z,1215
2017-09-05T17:39:50.768Z,1198
2017-09-05T17:40:52.529Z,1198
2017-09-05T17:41:54.252Z,1023
2017-09-05T17:42:55.987Z,1158
2017-09-05T17:43:57.775Z,1226
2017-09-05T17:44:59.485Z,1203
2017-09-05T17:46:01.216Z,1130
2017-09-05T17:47:02.991Z,945
2017-09-05T17:48:04.765Z,855
2017-09-05T17:49:06.518Z,652
2017-09-05T17:50:08.333Z,427
2017-09-05T17:51:10.053Z,675
2017-09-05T17:52:11.798Z,669
2017-09-05T17:53:13.527Z,579
2017-09-05T17:54:15.243Z,556
2017-09-05T17:55:16.990Z,528
2017-09-05T17:56:18.716Z,506
2017-09-05T17:57:20.498Z,478
2017-09-05T17:58:22.219Z,461
2017-09-05T17:59:23.925Z,444
2017-09-05T18:00:25.668Z,433
2017-09-05T18:01:27.678Z,416
2017-09-05T18:02:29.318Z,405
2017-09-05T18:03:32.351Z,399
2017-09-05T18:04:33.977Z,382
2017-09-05T18:05:35.714Z,371
2017-09-05T18:06:37.486Z,365
2017-09-05T18:07:39.224Z,354
2017-09-05T18:08:40.985Z,331
2017-09-05T18:09:42.694Z,253
2017-09-05T18:10:44.449Z,174
2017-09-05T18:11:46.214Z,140
2017-09-05T18:12:47.926Z,123
2017-09-05T18:13:49.713Z,112
2017-09-05T18:14:51.458Z,101
2017-09-05T18:15:53.210Z,90
2017-09-05T18:16:54.964Z,90
2017-09-05T18:17:56.697Z,84
2017-09-05T18:18:58.495Z,78
2017-09-05T18:20:00.237Z,78
2017-09-05T18:21:01.967Z,78
2017-09-05T18:22:03.810Z,73
2017-09-05T18:23:05.616Z,73
2017-09-05T18:24:07.412Z,67
2017-09-05T18:25:09.201Z,61
2017-09-05T18:26:11.016Z,61
2017-09-05T18:27:12.774Z,61
2017-09-05T18:28:14.531Z,61
2017-09-05T18:29:16.291Z,61
2017-09-05T18:30:18.090Z,61
2017-09-05T18:31:19.854Z,56
2017-09-05T18:32:21.672Z,56
2017-09-05T18:33:23.453Z,56
2017-09-05T18:34:25.201Z,50
2017-09-05T18:35:26.921Z,50
2017-09-05T18:36:28.646Z,50
2017-09-05T18:37:30.392Z,50
2017-09-05T18:38:32.198Z,45
2017-09-05T18:39:34.013Z,45
2017-09-05T18:40:35.742Z,45
2017-09-05T18:41:37.470Z,39
2017-09-05T18:42:39.239Z,39
2017-09-05T18:43:40.965Z,33
2017-09-05T18:44:42.683Z,33
2017-09-05T18:45:44.446Z,33
2017-09-05T18:46:46.172Z,28
2017-09-05T18:47:47.908Z,28
2017-09-05T18:48:49.697Z,28
2017-09-05T18:49:51.441Z,22
2017-09-05T18:50:53.254Z,22
2017-09-05T18:51:55.038Z,22
2017-09-05T18:52:56.778Z,16
2017-09-05T18:53:58.528Z,16
2017-09-05T18:55:00.323Z,16
2017-09-05T18:56:02.116Z,16
2017-09-05T18:57:03.905Z,11
2017-09-05T18:58:05.715Z,11
2017-09-05T18:59:07.450Z,11
2017-09-05T19:00:09.274Z,11
2017-09-05T19:01:11.021Z,5
2017-09-05T19:02:12.756Z,5
2017-09-05T19:03:14.541Z,5
2017-09-05T19:04:16.308Z,5
2017-09-05T19:05:18.079Z,5
2017-09-05T19:06:19.916Z,0
2017-09-05T19:07:21.661Z,0
2017-09-05T19:08:23.755Z,0
2017-09-05T19:09:25.505Z,0
2017-09-05T19:10:27.249Z,0
2017-09-05T19:11:28.959Z,0
2017-09-05T19:12:30.752Z,0
2017-09-05T19:13:32.482Z,0
2017-09-05T19:14:34.328Z,0
2017-09-05T19:15:36.085Z,0
2017-09-05T19:16:37.858Z,0
2017-09-05T19:17:39.637Z,0
2017-09-05T19:18:41.503Z,0
2017-09-05T19:19:43.302Z,0
2017-09-05T19:20:45.129Z,0
2017-09-05T19:21:47.092Z,0
2017-09-05T19:22:48.833Z,0
2017-09-05T19:23:50.535Z,0
2017-09-05T19:24:52.318Z,0
2017-09-05T19:25:54.065Z,0
2017-09-05T19:26:55.807Z,0
2017-09-05T19:27:57.519Z,0
2017-09-05T19:28:59.335Z,0
2017-09-05T19:30:01.042Z,0
2017-09-05T19:31:03.537Z,0
2017-09-05T19:32:05.360Z,0
2017-09-05T19:33:07.210Z,0
2017-09-05T19:34:09.020Z,0
2017-09-05T19:35:10.749Z,0
2017-09-05T19:36:12.541Z,0
2017-09-05T19:37:14.287Z,0
2017-09-05T19:38:16.086Z,0
2017-09-05T19:39:17.818Z,0
2017-09-05T19:40:19.553Z,0
2017-09-05T19:41:21.335Z,0
2017-09-05T19:42:23.089Z,0
2017-09-05T19:43:24.871Z,0
2017-09-05T19:44:26.607Z,0
2017-09-05T19:45:28.372Z,0
2017-09-05T19:46:30.129Z,0
2017-09-05T19:47:31.859Z,0
2017-09-05T19:48:33.586Z,0
2017-09-05T19:49:35.364Z,0
2017-09-05T19:50:37.064Z,0
2017-09-05T19:51:38.860Z,0
2017-09-05T19:52:40.577Z,0
2017-09-05T19:53:42.347Z,0
2017-09-05T19:54:44.075Z,0
2017-09-05T19:55:45.833Z,0
2017-09-05T19:56:47.606Z,0
2017-09-05T19:57:49.419Z,0
2017-09-05T19:58:51.126Z,0
2017-09-05T19:59:52.846Z,0
2017-09-05T20:00:54.587Z,0
2017-09-05T20:01:56.335Z,0
2017-09-05T20:02:58.111Z,0
2017-09-05T20:03:59.848Z,0
2017-09-05T20:05:01.590Z,0
2017-09-05T20:06:03.305Z,0
2017-09-05T20:07:05.051Z,0
2017-09-05T20:08:06.836Z,0
2017-09-05T20:09:08.609Z,0
2017-09-05T20:10:10.455Z,0
2017-09-05T20:11:12.256Z,0
2017-09-05T20:12:14.059Z,0
2017-09-05T20:13:15.806Z,0
2017-09-05T20:14:17.558Z,0
2017-09-05T20:15:19.351Z,0
2017-09-05T20:16:21.137Z,0
2017-09-05T20:17:22.922Z,0
2017-09-05T20:18:24.743Z,0
2017-09-05T20:19:26.665Z,0
2017-09-05T20:20:28.418Z,0
2017-09-05T20:21:30.171Z,0
2017-09-05T20:22:32.044Z,0
2017-09-05T20:23:33.910Z,0
2017-09-05T20:24:35.665Z,0
2017-09-05T20:25:37.403Z,0
2017-09-05T20:26:39.167Z,0
2017-09-05T20:27:40.937Z,0
2017-09-05T20:28:42.683Z,0
2017-09-05T20:29:44.467Z,0
2017-09-05T20:30:46.236Z,0
2017-09-05T20:31:48.008Z,0
2017-09-05T20:32:49.787Z,0
2017-09-05T20:33:51.580Z,0
2017-09-05T20:34:53.400Z,0
2017-09-05T20:35:55.187Z,0
2017-09-05T20:36:56.928Z,0
2017-09-05T20:37:58.733Z,0
2017-09-05T20:39:00.519Z,0
2017-09-05T20:40:02.288Z,0
2017-09-05T20:41:04.036Z,0
2017-09-05T20:42:05.800Z,0
2017-09-05T20:43:07.577Z,0
2017-09-05T20:44:09.365Z,0
2017-09-05T20:45:11.139Z,0
2017-09-05T20:46:12.880Z,0
2017-09-05T20:47:14.628Z,0
2017-09-05T20:48:16.454Z,0
2017-09-05T20:49:18.235Z,0
2017-09-05T20:50:20.052Z,0
2017-09-05T20:51:21.817Z,0
2017-09-05T20:52:23.564Z,0
2017-09-05T20:53:25.363Z,0
2017-09-05T20:54:27.185Z,0
2017-09-05T20:55:29.037Z,0
2017-09-05T20:56:30.862Z,0
2017-09-05T20:57:32.640Z,0
2017-09-05T20:58:34.490Z,0
2017-09-05T20:59:36.281Z,0
2017-09-05T21:00:38.093Z,0
2017-09-05T21:01:39.983Z,0
2017-09-05T21:02:41.745Z,0
2017-09-05T21:03:43.510Z,0
2017-09-05T21:04:45.271Z,0
2017-09-05T21:05:47.074Z,0
2017-09-05T21:06:48.849Z,0
2017-09-05T21:07:50.607Z,0
2017-09-05T21:08:52.356Z,0
2017-09-05T21:09:54.132Z,0
2017-09-05T21:10:55.899Z,0
2017-09-05T21:11:57.687Z,0
2017-09-05T21:12:59.458Z,0
2017-09-05T21:14:01.518Z,0
2017-09-05T21:15:03.323Z,0
2017-09-05T21:16:05.199Z,0
2017-09-05T21:17:07.015Z,0
2017-09-05T21:18:08.778Z,0
2017-09-05T21:19:10.648Z,0
2017-09-05T21:20:12.403Z,0
2017-09-05T21:21:14.145Z,0
2017-09-05T21:22:15.948Z,0
2017-09-05T21:23:17.718Z,0
2017-09-05T21:24:19.483Z,0
2017-09-05T21:25:21.232Z,0
2017-09-05T21:26:23.017Z,0
2017-09-05T21:27:24.771Z,0
2017-09-05T21:28:26.559Z,0
2017-09-05T21:29:28.313Z,0
2017-09-05T21:30:30.101Z,0
2017-09-05T21:31:31.839Z,0
2017-09-05T21:32:33.600Z,0
2017-09-05T21:33:35.359Z,0
2017-09-05T21:34:37.230Z,0
2017-09-05T21:35:39.080Z,0
2017-09-05T21:36:40.866Z,0
2017-09-05T21:37:42.687Z,0
2017-09-05T21:38:44.491Z,0
2017-09-05T21:39:46.237Z,0
2017-09-05T21:40:47.990Z,0
2017-09-05T21:41:49.735Z,0
2017-09-05T21:42:51.504Z,0
2017-09-05T21:43:53.263Z,0
2017-09-05T21:44:55.015Z,0
2017-09-05T21:45:56.805Z,0
2017-09-05T21:46:58.538Z,0
2017-09-05T21:48:00.343Z,0
2017-09-05T21:49:02.177Z,0
2017-09-05T21:50:04.042Z,0
2017-09-05T21:51:05.925Z,0
2017-09-05T21:52:07.838Z,0
2017-09-05T21:53:09.689Z,0
2017-09-05T21:54:11.507Z,0
2017-09-05T21:55:13.284Z,0
2017-09-05T21:56:15.046Z,0
2017-09-05T21:57:16.812Z,0
2017-09-05T21:58:18.612Z,0
2017-09-05T21:59:20.390Z,0
2017-09-05T22:00:22.203Z,0
2017-09-05T22:01:23.989Z,0
2017-09-05T22:02:25.788Z,0
2017-09-05T22:03:27.594Z,0
2017-09-05T22:04:29.526Z,0
2017-09-05T22:05:31.330Z,0
2017-09-05T22:06:33.101Z,0
2017-09-05T22:07:34.898Z,0
2017-09-05T22:08:36.647Z,0
2017-09-05T22:09:38.480Z,0
2017-09-05T22:10:40.254Z,0
2017-09-05T22:11:42.096Z,0
2017-09-05T22:12:43.936Z,0
2017-09-05T22:13:45.773Z,0
2017-09-05T22:14:47.760Z,0
2017-09-05T22:15:49.679Z,0
2017-09-05T22:16:51.582Z,0
2017-09-05T22:17:53.420Z,0
2017-09-05T22:18:55.237Z,0
2017-09-05T22:19:57.080Z,0
2017-09-05T22:20:58.932Z,0
2017-09-05T22:22:00.768Z,0
2017-09-05T22:23:02.545Z,0
2017-09-05T22:24:04.387Z,0
2017-09-05T22:25:06.175Z,0
2017-09-05T22:26:08.006Z,0
2017-09-05T22:27:09.849Z,0
2017-09-05T22:28:11.717Z,0
2017-09-05T22:29:13.538Z,0
2017-09-05T22:30:15.383Z,0
2017-09-05T22:31:17.203Z,0
2017-09-05T22:32:19.072Z,0
2017-09-05T22:33:20.884Z,0
2017-09-05T22:34:22.737Z,0
2017-09-05T22:35:24.579Z,0
2017-09-05T22:36:26.474Z,0
2017-09-05T22:37:28.339Z,0
2017-09-05T22:38:30.191Z,0
2017-09-05T22:39:32.027Z,0
2017-09-05T22:40:33.843Z,0
2017-09-05T22:41:35.685Z,0
2017-09-05T22:42:37.515Z,0
2017-09-05T22:43:39.478Z,0
2017-09-05T22:44:41.313Z,0
2017-09-05T22:45:43.153Z,0
2017-09-05T22:46:45.026Z,0
2017-09-05T22:47:46.883Z,0
2017-09-05T22:48:48.777Z,0
2017-09-05T22:49:50.627Z,0
2017-09-05T22:50:52.468Z,0
2017-09-05T22:51:54.275Z,0
2017-09-05T22:52:56.112Z,0
2017-09-05T22:53:57.944Z,0
2017-09-05T22:54:59.840Z,0
2017-09-05T22:56:01.701Z,0
2017-09-05T22:57:03.500Z,0
2017-09-05T22:58:05.284Z,0
2017-09-05T22:59:07.112Z,0
2017-09-05T23:00:08.890Z,0
2017-09-05T23:01:10.691Z,0
2017-09-05T23:02:12.518Z,0
2017-09-05T23:03:14.278Z,0
2017-09-05T23:04:16.006Z,0
2017-09-05T23:05:17.793Z,0
2017-09-05T23:06:19.623Z,0
2017-09-05T23:07:21.416Z,0
2017-09-05T23:08:23.259Z,0
2017-09-05T23:09:25.083Z,0
2017-09-05T23:10:26.889Z,0
2017-09-05T23:11:28.695Z,0
2017-09-05T23:12:30.608Z,0
2017-09-05T23:13:32.383Z,0
2017-09-05T23:14:34.133Z,0
2017-09-05T23:15:35.882Z,0
2017-09-05T23:16:37.638Z,0
2017-09-05T23:17:39.482Z,0
2017-09-05T23:18:41.238Z,0
2017-09-05T23:19:43.001Z,0
2017-09-05T23:20:44.768Z,0
2017-09-05T23:21:46.507Z,0
2017-09-05T23:22:48.289Z,0
2017-09-05T23:23:50.124Z,0
2017-09-05T23:24:51.896Z,0
2017-09-05T23:25:53.652Z,0
2017-09-05T23:26:55.403Z,0
2017-09-05T23:27:57.144Z,0
2017-09-05T23:28:58.863Z,0
2017-09-05T23:30:00.657Z,0
2017-09-05T23:31:02.443Z,0
2017-09-05T23:32:04.232Z,0
2017-09-05T23:33:05.991Z,0
2017-09-05T23:34:07.739Z,0
2017-09-05T23:35:09.521Z,0
2017-09-05T23:36:11.303Z,0
2017-09-05T23:37:13.026Z,0
2017-09-05T23:38:14.776Z,0
2017-09-05T23:39:16.501Z,0
2017-09-05T23:40:18.237Z,0
2017-09-05T23:41:20.108Z,0
2017-09-05T23:42:21.818Z,0
2017-09-05T23:43:23.576Z,0
2017-09-05T23:44:25.335Z,0
2017-09-05T23:45:27.152Z,0
2017-09-05T23:46:28.900Z,0
2017-09-05T23:47:30.652Z,0
2017-09-05T23:48:32.381Z,0
2017-09-05T23:49:34.113Z,0
2017-09-05T23:50:35.852Z,0
2017-09-05T23:51:37.593Z,0
2017-09-05T23:52:39.410Z,0
2017-09-05T23:53:41.148Z,0
2017-09-05T23:54:42.912Z,0
2017-09-05T23:55:44.630Z,0
2017-09-05T23:56:46.345Z,0
2017-09-05T23:57:48.070Z,0
2017-09-05T23:58:49.856Z,0
2017-09-05T23:59:51.560Z,0
